sensor_id;sensor_type;location;lat;lon;timestamp;temperature;humidity
2497;DHT22;1259;48.306;14.374;2023-02-01T00:02:05;1.30;99.90
2497;DHT22;1259;48.306;14.374;2023-02-01T00:04:32;1.30;99.90
2497;DHT22;1259;48.306;14.374;2023-02-01T00:06:59;1.40;99.90
2497;DHT22;1259;48.306;14.374;2023-02-01T00:09:28;1.40;99.90
2497;DHT22;1259;48.306;14.374;2023-02-01T00:11:54;1.50;99.90
2497;DHT22;1259;48.306;14.374;2023-02-01T00:14:25;1.50;99.90
2497;DHT22;1259;48.306;14.374;2023-02-01T00:16:52;1.40;99.90
2497;DHT22;1259;48.306;14.374;2023-02-01T00:19:19;1.40;99.90
2497;DHT22;1259;48.306;14.374;2023-02-01T00:21:45;1.40;99.90
2497;DHT22;1259;48.306;14.374;2023-02-01T00:24:13;1.40;99.90
2497;DHT22;1259;48.306;14.374;2023-02-01T00:26:42;1.40;99.90
2497;DHT22;1259;48.306;14.374;2023-02-01T00:29:12;1.50;99.90
2497;DHT22;1259;48.306;14.374;2023-02-01T00:31:39;1.50;99.90
2497;DHT22;1259;48.306;14.374;2023-02-01T00:34:06;1.40;99.90
2497;DHT22;1259;48.306;14.374;2023-02-01T00:36:34;1.40;99.90
2497;DHT22;1259;48.306;14.374;2023-02-01T00:39:01;1.40;99.90
2497;DHT22;1259;48.306;14.374;2023-02-01T00:41:28;1.30;99.90
2497;DHT22;1259;48.306;14.374;2023-02-01T00:43:56;1.40;99.90
2497;DHT22;1259;48.306;14.374;2023-02-01T00:46:23;1.40;99.90
2497;DHT22;1259;48.306;14.374;2023-02-01T00:48:50;1.40;99.90
2497;DHT22;1259;48.306;14.374;2023-02-01T00:51:19;1.40;99.90
2497;DHT22;1259;48.306;14.374;2023-02-01T00:53:47;1.40;99.90
2497;DHT22;1259;48.306;14.374;2023-02-01T00:56:14;1.40;99.90
2497;DHT22;1259;48.306;14.374;2023-02-01T00:58:41;1.40;99.90
2497;DHT22;1259;48.306;14.374;2023-02-01T01:01:11;1.40;99.90
2497;DHT22;1259;48.306;14.374;2023-02-01T01:03:40;1.40;99.90
2497;DHT22;1259;48.306;14.374;2023-02-01T01:06:10;1.40;99.90
2497;DHT22;1259;48.306;14.374;2023-02-01T01:08:38;1.40;99.90
2497;DHT22;1259;48.306;14.374;2023-02-01T01:11:06;1.40;99.90
2497;DHT22;1259;48.306;14.374;2023-02-01T01:13:33;1.40;99.90
2497;DHT22;1259;48.306;14.374;2023-02-01T01:16:01;1.40;99.90
2497;DHT22;1259;48.306;14.374;2023-02-01T01:18:31;1.50;99.90
2497;DHT22;1259;48.306;14.374;2023-02-01T01:20:59;1.50;99.90
2497;DHT22;1259;48.306;14.374;2023-02-01T01:23:26;1.50;99.90
2497;DHT22;1259;48.306;14.374;2023-02-01T01:25:54;1.50;99.90
2497;DHT22;1259;48.306;14.374;2023-02-01T01:28:21;1.50;99.90
2497;DHT22;1259;48.306;14.374;2023-02-01T01:30:48;1.60;99.90
2497;DHT22;1259;48.306;14.374;2023-02-01T01:33:15;1.50;99.90
2497;DHT22;1259;48.306;14.374;2023-02-01T01:35:43;1.60;99.90
2497;DHT22;1259;48.306;14.374;2023-02-01T01:38:10;1.50;99.90
2497;DHT22;1259;48.306;14.374;2023-02-01T01:40:38;1.60;99.90
2497;DHT22;1259;48.306;14.374;2023-02-01T01:43:12;1.60;99.90
2497;DHT22;1259;48.306;14.374;2023-02-01T01:45:40;1.70;99.90
2497;DHT22;1259;48.306;14.374;2023-02-01T01:48:10;1.60;99.90
2497;DHT22;1259;48.306;14.374;2023-02-01T01:50:43;1.60;99.90
2497;DHT22;1259;48.306;14.374;2023-02-01T01:53:14;1.70;99.90
2497;DHT22;1259;48.306;14.374;2023-02-01T01:55:44;1.70;99.90
2497;DHT22;1259;48.306;14.374;2023-02-01T01:58:16;1.70;99.90
2497;DHT22;1259;48.306;14.374;2023-02-01T02:00:44;1.70;99.90
2497;DHT22;1259;48.306;14.374;2023-02-01T02:03:14;1.80;99.90
2497;DHT22;1259;48.306;14.374;2023-02-01T02:05:46;1.90;99.90
2497;DHT22;1259;48.306;14.374;2023-02-01T02:08:15;1.80;99.90
2497;DHT22;1259;48.306;14.374;2023-02-01T02:10:42;1.90;99.90
2497;DHT22;1259;48.306;14.374;2023-02-01T02:13:30;1.90;99.90
2497;DHT22;1259;48.306;14.374;2023-02-01T02:16:12;2.00;99.90
2497;DHT22;1259;48.306;14.374;2023-02-01T02:18:50;2.00;99.90
2497;DHT22;1259;48.306;14.374;2023-02-01T02:21:42;2.00;99.90
2497;DHT22;1259;48.306;14.374;2023-02-01T02:27:23;2.10;99.90
2497;DHT22;1259;48.306;14.374;2023-02-01T02:30:36;2.00;99.90
2497;DHT22;1259;48.306;14.374;2023-02-01T02:36:34;2.10;99.90
2497;DHT22;1259;48.306;14.374;2023-02-01T02:39:06;2.10;99.90
2497;DHT22;1259;48.306;14.374;2023-02-01T02:41:43;2.10;99.90
2497;DHT22;1259;48.306;14.374;2023-02-01T02:44:35;2.10;99.90
2497;DHT22;1259;48.306;14.374;2023-02-01T02:47:24;2.10;99.90
2497;DHT22;1259;48.306;14.374;2023-02-01T02:50:05;2.10;99.90
2497;DHT22;1259;48.306;14.374;2023-02-01T02:52:59;2.10;99.90
2497;DHT22;1259;48.306;14.374;2023-02-01T02:55:45;2.00;99.90
2497;DHT22;1259;48.306;14.374;2023-02-01T02:58:13;2.00;99.90
2497;DHT22;1259;48.306;14.374;2023-02-01T03:00:57;2.00;99.90
2497;DHT22;1259;48.306;14.374;2023-02-01T03:03:43;1.90;99.90
2497;DHT22;1259;48.306;14.374;2023-02-01T03:06:28;1.90;99.90
2497;DHT22;1259;48.306;14.374;2023-02-01T03:08:57;2.00;99.90
2497;DHT22;1259;48.306;14.374;2023-02-01T03:11:25;1.90;99.90
2497;DHT22;1259;48.306;14.374;2023-02-01T03:14:15;1.90;99.90
2497;DHT22;1259;48.306;14.374;2023-02-01T03:16:47;1.90;99.90
2497;DHT22;1259;48.306;14.374;2023-02-01T03:19:21;2.00;99.90
2497;DHT22;1259;48.306;14.374;2023-02-01T03:21:50;2.00;99.90
2497;DHT22;1259;48.306;14.374;2023-02-01T03:24:23;2.00;99.90
2497;DHT22;1259;48.306;14.374;2023-02-01T03:27:02;2.00;99.90
2497;DHT22;1259;48.306;14.374;2023-02-01T03:29:37;2.00;99.90
2497;DHT22;1259;48.306;14.374;2023-02-01T03:32:05;2.00;99.90
2497;DHT22;1259;48.306;14.374;2023-02-01T03:34:33;2.00;99.90
2497;DHT22;1259;48.306;14.374;2023-02-01T03:37:02;2.10;99.90
2497;DHT22;1259;48.306;14.374;2023-02-01T03:39:36;2.00;99.90
2497;DHT22;1259;48.306;14.374;2023-02-01T03:42:08;2.00;99.90
2497;DHT22;1259;48.306;14.374;2023-02-01T03:44:39;2.00;99.90
2497;DHT22;1259;48.306;14.374;2023-02-01T03:47:10;2.00;99.90
2497;DHT22;1259;48.306;14.374;2023-02-01T03:49:41;2.10;99.90
2497;DHT22;1259;48.306;14.374;2023-02-01T03:52:12;2.10;99.90
2497;DHT22;1259;48.306;14.374;2023-02-01T03:54:42;2.10;99.90
2497;DHT22;1259;48.306;14.374;2023-02-01T03:57:12;2.10;99.90
2497;DHT22;1259;48.306;14.374;2023-02-01T03:59:40;2.20;99.90
2497;DHT22;1259;48.306;14.374;2023-02-01T04:02:07;2.10;99.90
2497;DHT22;1259;48.306;14.374;2023-02-01T04:04:34;2.10;99.90
2497;DHT22;1259;48.306;14.374;2023-02-01T04:07:01;2.20;99.90
2497;DHT22;1259;48.306;14.374;2023-02-01T04:09:28;2.20;99.90
2497;DHT22;1259;48.306;14.374;2023-02-01T04:11:57;2.30;99.90
2497;DHT22;1259;48.306;14.374;2023-02-01T04:14:24;2.30;99.90
2497;DHT22;1259;48.306;14.374;2023-02-01T04:16:51;2.30;99.90
2497;DHT22;1259;48.306;14.374;2023-02-01T04:19:18;2.30;99.90
2497;DHT22;1259;48.306;14.374;2023-02-01T04:21:45;2.30;99.90
2497;DHT22;1259;48.306;14.374;2023-02-01T04:24:12;2.30;99.90
2497;DHT22;1259;48.306;14.374;2023-02-01T04:26:38;2.30;99.90
2497;DHT22;1259;48.306;14.374;2023-02-01T04:29:08;2.30;99.90
2497;DHT22;1259;48.306;14.374;2023-02-01T04:31:35;2.30;99.90
2497;DHT22;1259;48.306;14.374;2023-02-01T04:34:02;2.40;99.90
2497;DHT22;1259;48.306;14.374;2023-02-01T04:36:29;2.30;99.90
2497;DHT22;1259;48.306;14.374;2023-02-01T04:38:55;2.40;99.90
2497;DHT22;1259;48.306;14.374;2023-02-01T04:41:22;2.30;99.90
2497;DHT22;1259;48.306;14.374;2023-02-01T04:43:50;2.30;99.90
2497;DHT22;1259;48.306;14.374;2023-02-01T04:46:19;2.30;99.90
2497;DHT22;1259;48.306;14.374;2023-02-01T04:48:46;2.30;99.90
2497;DHT22;1259;48.306;14.374;2023-02-01T04:51:13;2.30;99.90
2497;DHT22;1259;48.306;14.374;2023-02-01T04:53:40;2.30;99.90
2497;DHT22;1259;48.306;14.374;2023-02-01T04:56:07;2.30;99.90
2497;DHT22;1259;48.306;14.374;2023-02-01T04:58:34;2.40;99.90
2497;DHT22;1259;48.306;14.374;2023-02-01T05:01:02;2.30;99.90
2497;DHT22;1259;48.306;14.374;2023-02-01T05:03:31;2.40;99.90
2497;DHT22;1259;48.306;14.374;2023-02-01T05:05:58;2.40;99.90
2497;DHT22;1259;48.306;14.374;2023-02-01T05:08:26;2.40;99.90
2497;DHT22;1259;48.306;14.374;2023-02-01T05:10:54;2.40;99.90
2497;DHT22;1259;48.306;14.374;2023-02-01T05:13:21;2.40;99.90
2497;DHT22;1259;48.306;14.374;2023-02-01T05:16:06;2.50;99.90
2497;DHT22;1259;48.306;14.374;2023-02-01T05:18:34;2.40;99.90
2497;DHT22;1259;48.306;14.374;2023-02-01T05:21:01;2.40;99.90
2497;DHT22;1259;48.306;14.374;2023-02-01T05:23:28;2.50;99.90
2497;DHT22;1259;48.306;14.374;2023-02-01T05:25:58;2.50;99.90
2497;DHT22;1259;48.306;14.374;2023-02-01T05:28:26;2.50;99.90
2497;DHT22;1259;48.306;14.374;2023-02-01T05:30:53;2.50;99.90
2497;DHT22;1259;48.306;14.374;2023-02-01T05:33:21;2.50;99.90
2497;DHT22;1259;48.306;14.374;2023-02-01T05:35:49;2.50;99.90
2497;DHT22;1259;48.306;14.374;2023-02-01T05:38:16;2.50;99.90
2497;DHT22;1259;48.306;14.374;2023-02-01T05:40:43;2.50;99.90
2497;DHT22;1259;48.306;14.374;2023-02-01T05:43:15;2.50;99.90
2497;DHT22;1259;48.306;14.374;2023-02-01T05:45:42;2.50;99.90
2497;DHT22;1259;48.306;14.374;2023-02-01T05:48:09;2.50;99.90
2497;DHT22;1259;48.306;14.374;2023-02-01T05:50:36;2.60;99.90
2497;DHT22;1259;48.306;14.374;2023-02-01T05:53:04;2.50;99.90
2497;DHT22;1259;48.306;14.374;2023-02-01T05:55:31;2.60;99.90
2497;DHT22;1259;48.306;14.374;2023-02-01T05:57:58;2.60;99.90
2497;DHT22;1259;48.306;14.374;2023-02-01T06:00:25;2.60;99.90
2497;DHT22;1259;48.306;14.374;2023-02-01T06:02:52;2.60;99.90
2497;DHT22;1259;48.306;14.374;2023-02-01T06:05:19;2.60;99.90
2497;DHT22;1259;48.306;14.374;2023-02-01T06:07:46;2.60;99.90
2497;DHT22;1259;48.306;14.374;2023-02-01T06:10:15;2.60;99.90
2497;DHT22;1259;48.306;14.374;2023-02-01T06:12:42;2.60;99.90
2497;DHT22;1259;48.306;14.374;2023-02-01T06:15:11;2.60;99.90
2497;DHT22;1259;48.306;14.374;2023-02-01T06:17:38;2.60;99.90
2497;DHT22;1259;48.306;14.374;2023-02-01T06:20:05;2.60;99.90
2497;DHT22;1259;48.306;14.374;2023-02-01T06:22:33;2.60;99.90
2497;DHT22;1259;48.306;14.374;2023-02-01T06:25:01;2.60;99.90
2497;DHT22;1259;48.306;14.374;2023-02-01T06:27:29;2.60;99.90
2497;DHT22;1259;48.306;14.374;2023-02-01T06:29:57;2.60;99.90
2497;DHT22;1259;48.306;14.374;2023-02-01T06:32:24;2.60;99.90
2497;DHT22;1259;48.306;14.374;2023-02-01T06:34:51;2.60;99.90
2497;DHT22;1259;48.306;14.374;2023-02-01T06:37:18;2.60;99.90
2497;DHT22;1259;48.306;14.374;2023-02-01T06:39:45;2.60;99.90
2497;DHT22;1259;48.306;14.374;2023-02-01T06:42:12;2.60;99.90
2497;DHT22;1259;48.306;14.374;2023-02-01T06:44:40;2.60;99.90
2497;DHT22;1259;48.306;14.374;2023-02-01T06:47:07;2.60;99.90
2497;DHT22;1259;48.306;14.374;2023-02-01T06:49:34;2.60;99.90
2497;DHT22;1259;48.306;14.374;2023-02-01T06:52:01;2.60;99.90
2497;DHT22;1259;48.306;14.374;2023-02-01T06:54:28;2.60;99.90
2497;DHT22;1259;48.306;14.374;2023-02-01T06:56:57;2.60;99.90
2497;DHT22;1259;48.306;14.374;2023-02-01T06:59:24;2.60;99.90
2497;DHT22;1259;48.306;14.374;2023-02-01T07:01:52;2.60;99.90
2497;DHT22;1259;48.306;14.374;2023-02-01T07:04:19;2.70;99.90
2497;DHT22;1259;48.306;14.374;2023-02-01T07:06:46;2.70;99.90
2497;DHT22;1259;48.306;14.374;2023-02-01T07:09:13;2.70;99.90
2497;DHT22;1259;48.306;14.374;2023-02-01T07:11:40;2.70;99.90
2497;DHT22;1259;48.306;14.374;2023-02-01T07:14:08;2.70;99.90
2497;DHT22;1259;48.306;14.374;2023-02-01T07:16:35;2.60;99.90
2497;DHT22;1259;48.306;14.374;2023-02-01T07:19:04;2.70;99.90
2497;DHT22;1259;48.306;14.374;2023-02-01T07:21:31;2.70;99.90
2497;DHT22;1259;48.306;14.374;2023-02-01T07:23:58;2.70;99.90
2497;DHT22;1259;48.306;14.374;2023-02-01T07:26:25;2.70;99.90
2497;DHT22;1259;48.306;14.374;2023-02-01T07:28:52;2.70;99.90
2497;DHT22;1259;48.306;14.374;2023-02-01T07:31:19;2.70;99.90
2497;DHT22;1259;48.306;14.374;2023-02-01T07:33:48;2.70;99.90
2497;DHT22;1259;48.306;14.374;2023-02-01T07:36:19;2.70;99.90
2497;DHT22;1259;48.306;14.374;2023-02-01T07:38:46;2.70;99.90
2497;DHT22;1259;48.306;14.374;2023-02-01T07:41:13;2.70;99.90
2497;DHT22;1259;48.306;14.374;2023-02-01T07:43:40;2.70;99.90
2497;DHT22;1259;48.306;14.374;2023-02-01T07:46:07;2.80;99.90
2497;DHT22;1259;48.306;14.374;2023-02-01T07:48:34;2.70;99.90
2497;DHT22;1259;48.306;14.374;2023-02-01T07:51:03;2.80;99.90
2497;DHT22;1259;48.306;14.374;2023-02-01T07:53:32;2.80;99.90
2497;DHT22;1259;48.306;14.374;2023-02-01T07:56:00;2.80;99.90
2497;DHT22;1259;48.306;14.374;2023-02-01T07:58:27;2.80;99.90
2497;DHT22;1259;48.306;14.374;2023-02-01T08:00:55;2.80;99.90
2497;DHT22;1259;48.306;14.374;2023-02-01T08:03:39;2.80;99.90
2497;DHT22;1259;48.306;14.374;2023-02-01T08:06:06;2.70;99.90
2497;DHT22;1259;48.306;14.374;2023-02-01T08:08:34;2.80;99.90
2497;DHT22;1259;48.306;14.374;2023-02-01T08:11:03;2.80;99.90
2497;DHT22;1259;48.306;14.374;2023-02-01T08:13:30;2.80;99.90
2497;DHT22;1259;48.306;14.374;2023-02-01T08:15:58;2.80;99.90
2497;DHT22;1259;48.306;14.374;2023-02-01T08:18:25;2.70;99.90
2497;DHT22;1259;48.306;14.374;2023-02-01T08:20:52;2.80;99.90
2497;DHT22;1259;48.306;14.374;2023-02-01T08:23:19;2.70;99.90
2497;DHT22;1259;48.306;14.374;2023-02-01T08:25:47;2.70;99.90
2497;DHT22;1259;48.306;14.374;2023-02-01T08:28:14;2.70;99.90
2497;DHT22;1259;48.306;14.374;2023-02-01T08:30:41;2.70;99.90
2497;DHT22;1259;48.306;14.374;2023-02-01T08:33:08;2.60;99.90
2497;DHT22;1259;48.306;14.374;2023-02-01T08:35:36;2.60;99.90
2497;DHT22;1259;48.306;14.374;2023-02-01T08:38:03;2.60;99.90
2497;DHT22;1259;48.306;14.374;2023-02-01T08:40:31;2.60;99.90
2497;DHT22;1259;48.306;14.374;2023-02-01T08:42:59;2.60;99.90
2497;DHT22;1259;48.306;14.374;2023-02-01T08:45:27;2.60;99.90
2497;DHT22;1259;48.306;14.374;2023-02-01T08:47:55;2.50;99.90
2497;DHT22;1259;48.306;14.374;2023-02-01T08:50:23;2.50;99.90
2497;DHT22;1259;48.306;14.374;2023-02-01T08:52:50;2.50;99.90
2497;DHT22;1259;48.306;14.374;2023-02-01T08:55:17;2.50;99.90
2497;DHT22;1259;48.306;14.374;2023-02-01T08:57:45;2.50;99.90
2497;DHT22;1259;48.306;14.374;2023-02-01T09:00:15;2.50;99.90
2497;DHT22;1259;48.306;14.374;2023-02-01T09:02:42;2.50;99.90
2497;DHT22;1259;48.306;14.374;2023-02-01T09:05:10;2.50;99.90
2497;DHT22;1259;48.306;14.374;2023-02-01T09:07:37;2.50;99.90
2497;DHT22;1259;48.306;14.374;2023-02-01T09:10:05;2.50;99.90
2497;DHT22;1259;48.306;14.374;2023-02-01T09:12:34;2.50;99.90
2497;DHT22;1259;48.306;14.374;2023-02-01T09:15:02;2.50;99.90
2497;DHT22;1259;48.306;14.374;2023-02-01T09:17:32;2.50;99.90
2497;DHT22;1259;48.306;14.374;2023-02-01T09:19:59;2.50;99.90
2497;DHT22;1259;48.306;14.374;2023-02-01T09:22:26;2.50;99.90
2497;DHT22;1259;48.306;14.374;2023-02-01T09:24:53;2.50;99.90
2497;DHT22;1259;48.306;14.374;2023-02-01T09:27:20;2.50;99.90
2497;DHT22;1259;48.306;14.374;2023-02-01T09:29:47;2.50;99.90
2497;DHT22;1259;48.306;14.374;2023-02-01T09:32:18;2.50;99.90
2497;DHT22;1259;48.306;14.374;2023-02-01T09:34:47;2.50;99.90
2497;DHT22;1259;48.306;14.374;2023-02-01T09:37:14;2.50;99.90
2497;DHT22;1259;48.306;14.374;2023-02-01T09:39:41;2.40;99.90
2497;DHT22;1259;48.306;14.374;2023-02-01T09:42:25;2.40;99.90
2497;DHT22;1259;48.306;14.374;2023-02-01T09:45:08;2.50;99.90
2497;DHT22;1259;48.306;14.374;2023-02-01T09:47:51;2.50;99.90
2497;DHT22;1259;48.306;14.374;2023-02-01T09:50:28;2.50;99.90
2497;DHT22;1259;48.306;14.374;2023-02-01T09:53:00;2.60;99.90
2497;DHT22;1259;48.306;14.374;2023-02-01T09:55:35;2.60;99.90
2497;DHT22;1259;48.306;14.374;2023-02-01T09:58:06;2.60;99.90
2497;DHT22;1259;48.306;14.374;2023-02-01T10:00:37;2.60;99.90
2497;DHT22;1259;48.306;14.374;2023-02-01T10:03:05;2.60;99.90
2497;DHT22;1259;48.306;14.374;2023-02-01T10:05:47;2.60;99.90
2497;DHT22;1259;48.306;14.374;2023-02-01T10:08:22;2.70;99.90
2497;DHT22;1259;48.306;14.374;2023-02-01T10:10:54;2.70;99.90
2497;DHT22;1259;48.306;14.374;2023-02-01T10:13:43;2.70;99.90
2497;DHT22;1259;48.306;14.374;2023-02-01T10:16:31;2.70;99.90
2497;DHT22;1259;48.306;14.374;2023-02-01T10:19:22;2.70;99.90
2497;DHT22;1259;48.306;14.374;2023-02-01T10:21:54;2.70;99.90
2497;DHT22;1259;48.306;14.374;2023-02-01T10:24:36;2.70;99.90
2497;DHT22;1259;48.306;14.374;2023-02-01T10:27:12;2.60;99.90
2497;DHT22;1259;48.306;14.374;2023-02-01T10:29:41;2.50;99.90
2497;DHT22;1259;48.306;14.374;2023-02-01T10:32:13;2.60;99.90
2497;DHT22;1259;48.306;14.374;2023-02-01T10:34:41;2.50;99.90
2497;DHT22;1259;48.306;14.374;2023-02-01T10:37:16;2.50;99.90
2497;DHT22;1259;48.306;14.374;2023-02-01T10:39:45;2.50;99.90
2497;DHT22;1259;48.306;14.374;2023-02-01T10:42:13;2.40;99.90
2497;DHT22;1259;48.306;14.374;2023-02-01T10:44:43;2.40;99.90
2497;DHT22;1259;48.306;14.374;2023-02-01T10:47:13;2.30;99.90
2497;DHT22;1259;48.306;14.374;2023-02-01T10:49:45;2.10;99.90
2497;DHT22;1259;48.306;14.374;2023-02-01T10:52:18;2.00;99.90
2497;DHT22;1259;48.306;14.374;2023-02-01T10:54:47;2.10;99.90
2497;DHT22;1259;48.306;14.374;2023-02-01T10:57:21;2.10;99.90
2497;DHT22;1259;48.306;14.374;2023-02-01T10:59:49;2.10;99.90
2497;DHT22;1259;48.306;14.374;2023-02-01T11:02:20;2.10;99.90
2497;DHT22;1259;48.306;14.374;2023-02-01T11:04:59;2.00;99.90
2497;DHT22;1259;48.306;14.374;2023-02-01T11:07:29;2.10;99.90
2497;DHT22;1259;48.306;14.374;2023-02-01T11:09:56;2.10;99.90
2497;DHT22;1259;48.306;14.374;2023-02-01T11:12:29;2.10;99.90
2497;DHT22;1259;48.306;14.374;2023-02-01T11:15:03;2.00;99.90
2497;DHT22;1259;48.306;14.374;2023-02-01T11:17:42;2.00;99.90
2497;DHT22;1259;48.306;14.374;2023-02-01T11:20:14;1.90;99.90
2497;DHT22;1259;48.306;14.374;2023-02-01T11:22:47;1.90;99.90
2497;DHT22;1259;48.306;14.374;2023-02-01T11:25:16;1.90;99.90
2497;DHT22;1259;48.306;14.374;2023-02-01T11:27:44;1.80;99.90
2497;DHT22;1259;48.306;14.374;2023-02-01T11:30:16;1.80;99.90
2497;DHT22;1259;48.306;14.374;2023-02-01T11:32:45;1.80;99.90
2497;DHT22;1259;48.306;14.374;2023-02-01T11:35:17;1.90;99.90
2497;DHT22;1259;48.306;14.374;2023-02-01T11:37:52;2.10;99.90
2497;DHT22;1259;48.306;14.374;2023-02-01T11:40:26;2.30;99.90
2497;DHT22;1259;48.306;14.374;2023-02-01T11:42:55;2.40;99.90
2497;DHT22;1259;48.306;14.374;2023-02-01T11:45:26;2.50;99.90
2497;DHT22;1259;48.306;14.374;2023-02-01T11:47:56;2.60;99.90
2497;DHT22;1259;48.306;14.374;2023-02-01T11:50:30;2.70;99.90
2497;DHT22;1259;48.306;14.374;2023-02-01T11:53:18;2.80;99.90
2497;DHT22;1259;48.306;14.374;2023-02-01T11:55:56;2.80;99.90
2497;DHT22;1259;48.306;14.374;2023-02-01T11:58:53;2.80;99.90
2497;DHT22;1259;48.306;14.374;2023-02-01T12:01:44;2.80;99.90
2497;DHT22;1259;48.306;14.374;2023-02-01T12:04:49;2.70;99.90
2497;DHT22;1259;48.306;14.374;2023-02-01T12:07:21;2.60;99.90
2497;DHT22;1259;48.306;14.374;2023-02-01T12:10:01;2.60;99.90
2497;DHT22;1259;48.306;14.374;2023-02-01T12:12:38;2.60;99.90
2497;DHT22;1259;48.306;14.374;2023-02-01T12:15:22;2.60;99.90
2497;DHT22;1259;48.306;14.374;2023-02-01T12:18:02;2.60;99.90
2497;DHT22;1259;48.306;14.374;2023-02-01T12:21:03;2.60;99.90
2497;DHT22;1259;48.306;14.374;2023-02-01T12:23:46;2.60;99.90
2497;DHT22;1259;48.306;14.374;2023-02-01T12:26:47;2.60;99.90
2497;DHT22;1259;48.306;14.374;2023-02-01T12:29:43;2.60;99.90
2497;DHT22;1259;48.306;14.374;2023-02-01T12:32:24;2.70;99.90
2497;DHT22;1259;48.306;14.374;2023-02-01T12:37:52;2.80;99.90
2497;DHT22;1259;48.306;14.374;2023-02-01T12:40:38;2.80;99.90
2497;DHT22;1259;48.306;14.374;2023-02-01T12:43:13;2.80;99.90
2497;DHT22;1259;48.306;14.374;2023-02-01T12:45:52;2.80;99.90
2497;DHT22;1259;48.306;14.374;2023-02-01T12:48:28;2.70;99.90
2497;DHT22;1259;48.306;14.374;2023-02-01T12:50:59;2.70;99.90
2497;DHT22;1259;48.306;14.374;2023-02-01T12:53:35;2.80;99.90
2497;DHT22;1259;48.306;14.374;2023-02-01T12:56:07;2.80;99.90
2497;DHT22;1259;48.306;14.374;2023-02-01T12:58:44;2.90;99.90
2497;DHT22;1259;48.306;14.374;2023-02-01T13:01:17;2.90;99.90
2497;DHT22;1259;48.306;14.374;2023-02-01T13:03:54;2.90;99.90
2497;DHT22;1259;48.306;14.374;2023-02-01T13:06:28;3.00;99.90
2497;DHT22;1259;48.306;14.374;2023-02-01T13:09:00;3.00;99.90
2497;DHT22;1259;48.306;14.374;2023-02-01T13:11:30;3.00;99.90
2497;DHT22;1259;48.306;14.374;2023-02-01T13:14:03;3.00;99.90
2497;DHT22;1259;48.306;14.374;2023-02-01T13:16:35;2.90;99.90
2497;DHT22;1259;48.306;14.374;2023-02-01T13:19:09;2.80;99.90
2497;DHT22;1259;48.306;14.374;2023-02-01T13:21:43;2.60;99.90
2497;DHT22;1259;48.306;14.374;2023-02-01T13:24:36;2.50;99.90
2497;DHT22;1259;48.306;14.374;2023-02-01T13:27:03;2.30;99.90
2497;DHT22;1259;48.306;14.374;2023-02-01T13:29:35;2.10;99.90
2497;DHT22;1259;48.306;14.374;2023-02-01T13:35:03;2.10;99.90
2497;DHT22;1259;48.306;14.374;2023-02-01T13:37:51;2.10;99.90
2497;DHT22;1259;48.306;14.374;2023-02-01T13:40:38;2.10;99.90
2497;DHT22;1259;48.306;14.374;2023-02-01T13:43:10;2.20;99.90
2497;DHT22;1259;48.306;14.374;2023-02-01T13:45:45;2.10;99.90
2497;DHT22;1259;48.306;14.374;2023-02-01T13:48:26;2.20;99.90
2497;DHT22;1259;48.306;14.374;2023-02-01T13:50:56;2.30;99.90
2497;DHT22;1259;48.306;14.374;2023-02-01T13:53:27;2.30;99.90
2497;DHT22;1259;48.306;14.374;2023-02-01T13:55:58;2.30;99.90
2497;DHT22;1259;48.306;14.374;2023-02-01T13:58:31;2.40;99.90
2497;DHT22;1259;48.306;14.374;2023-02-01T14:01:34;2.40;99.90
2497;DHT22;1259;48.306;14.374;2023-02-01T14:04:03;2.40;99.90
2497;DHT22;1259;48.306;14.374;2023-02-01T14:06:52;2.40;99.90
2497;DHT22;1259;48.306;14.374;2023-02-01T14:09:32;2.50;99.90
2497;DHT22;1259;48.306;14.374;2023-02-01T14:15:19;2.50;99.90
2497;DHT22;1259;48.306;14.374;2023-02-01T14:17:49;2.60;99.90
2497;DHT22;1259;48.306;14.374;2023-02-01T14:20:43;2.60;99.90
2497;DHT22;1259;48.306;14.374;2023-02-01T14:23:24;2.60;99.90
2497;DHT22;1259;48.306;14.374;2023-02-01T14:26:11;2.70;99.90
2497;DHT22;1259;48.306;14.374;2023-02-01T14:34:38;2.70;99.90
2497;DHT22;1259;48.306;14.374;2023-02-01T14:37:11;2.80;99.90
2497;DHT22;1259;48.306;14.374;2023-02-01T14:39:54;2.80;99.90
2497;DHT22;1259;48.306;14.374;2023-02-01T14:42:25;2.80;99.90
2497;DHT22;1259;48.306;14.374;2023-02-01T14:44:54;2.80;99.90
2497;DHT22;1259;48.306;14.374;2023-02-01T14:47:32;2.80;99.90
2497;DHT22;1259;48.306;14.374;2023-02-01T14:50:17;2.80;99.90
2497;DHT22;1259;48.306;14.374;2023-02-01T14:52:49;2.80;99.90
2497;DHT22;1259;48.306;14.374;2023-02-01T14:55:21;2.90;99.90
2497;DHT22;1259;48.306;14.374;2023-02-01T14:57:53;2.80;99.90
2497;DHT22;1259;48.306;14.374;2023-02-01T15:00:26;2.80;99.90
2497;DHT22;1259;48.306;14.374;2023-02-01T15:03:13;2.80;99.90
2497;DHT22;1259;48.306;14.374;2023-02-01T15:05:43;2.80;99.90
2497;DHT22;1259;48.306;14.374;2023-02-01T15:08:20;2.80;99.90
2497;DHT22;1259;48.306;14.374;2023-02-01T15:10:51;2.80;99.90
2497;DHT22;1259;48.306;14.374;2023-02-01T15:13:20;2.80;99.90
2497;DHT22;1259;48.306;14.374;2023-02-01T15:16:01;2.80;99.90
2497;DHT22;1259;48.306;14.374;2023-02-01T15:18:28;2.80;99.90
2497;DHT22;1259;48.306;14.374;2023-02-01T15:20:58;2.80;99.90
2497;DHT22;1259;48.306;14.374;2023-02-01T15:23:26;2.80;99.90
2497;DHT22;1259;48.306;14.374;2023-02-01T15:25:53;2.80;99.90
2497;DHT22;1259;48.306;14.374;2023-02-01T15:28:21;2.80;99.90
2497;DHT22;1259;48.306;14.374;2023-02-01T15:30:54;2.80;99.90
2497;DHT22;1259;48.306;14.374;2023-02-01T15:33:21;2.80;99.90
2497;DHT22;1259;48.306;14.374;2023-02-01T15:35:49;2.80;99.90
2497;DHT22;1259;48.306;14.374;2023-02-01T15:38:33;2.90;99.90
2497;DHT22;1259;48.306;14.374;2023-02-01T15:41:04;2.90;99.90
2497;DHT22;1259;48.306;14.374;2023-02-01T15:43:34;2.90;99.90
2497;DHT22;1259;48.306;14.374;2023-02-01T15:46:06;2.90;99.90
2497;DHT22;1259;48.306;14.374;2023-02-01T15:48:38;2.90;99.90
2497;DHT22;1259;48.306;14.374;2023-02-01T15:51:10;2.90;99.90
2497;DHT22;1259;48.306;14.374;2023-02-01T15:53:44;3.00;99.90
2497;DHT22;1259;48.306;14.374;2023-02-01T15:56:12;3.00;99.90
2497;DHT22;1259;48.306;14.374;2023-02-01T15:58:42;3.00;99.90
2497;DHT22;1259;48.306;14.374;2023-02-01T16:01:12;3.00;99.90
2497;DHT22;1259;48.306;14.374;2023-02-01T16:03:41;3.00;99.90
2497;DHT22;1259;48.306;14.374;2023-02-01T16:06:09;3.00;99.90
2497;DHT22;1259;48.306;14.374;2023-02-01T16:08:48;2.80;99.90
2497;DHT22;1259;48.306;14.374;2023-02-01T16:11:25;2.60;99.90
2497;DHT22;1259;48.306;14.374;2023-02-01T16:13:53;2.50;99.90
2497;DHT22;1259;48.306;14.374;2023-02-01T16:16:20;2.50;99.90
2497;DHT22;1259;48.306;14.374;2023-02-01T16:18:47;2.50;99.90
2497;DHT22;1259;48.306;14.374;2023-02-01T16:21:14;2.50;99.90
2497;DHT22;1259;48.306;14.374;2023-02-01T16:23:42;2.50;99.90
2497;DHT22;1259;48.306;14.374;2023-02-01T16:26:09;2.50;99.90
2497;DHT22;1259;48.306;14.374;2023-02-01T16:28:36;2.40;99.90
2497;DHT22;1259;48.306;14.374;2023-02-01T16:31:04;2.40;99.90
2497;DHT22;1259;48.306;14.374;2023-02-01T16:33:33;2.40;99.90
2497;DHT22;1259;48.306;14.374;2023-02-01T16:36:00;2.40;99.90
2497;DHT22;1259;48.306;14.374;2023-02-01T16:38:29;2.40;99.90
2497;DHT22;1259;48.306;14.374;2023-02-01T16:40:57;2.30;99.90
2497;DHT22;1259;48.306;14.374;2023-02-01T16:43:25;2.40;99.90
2497;DHT22;1259;48.306;14.374;2023-02-01T16:45:54;2.30;99.90
2497;DHT22;1259;48.306;14.374;2023-02-01T16:48:23;2.40;99.90
2497;DHT22;1259;48.306;14.374;2023-02-01T16:50:53;2.40;99.90
2497;DHT22;1259;48.306;14.374;2023-02-01T16:53:22;2.40;99.90